createdAt,value
2018-06-14T00:00:07.090Z,99.449
2018-06-14T00:01:12.212Z,99.7026
2018-06-14T00:02:17.666Z,98.6933
2018-06-14T00:03:22.832Z,98.2731
2018-06-14T00:04:28.919Z,98.9443
2018-06-14T00:05:34.353Z,99.1979
2018-06-14T00:06:39.862Z,98.5242
2018-06-14T00:07:45.298Z,98.9443
2018-06-14T00:08:50.736Z,99.1979
2018-06-14T00:09:55.840Z,98.2731
2018-06-14T00:11:01.008Z,98.5242
2018-06-14T00:12:06.448Z,98.6933
2018-06-14T00:13:11.717Z,98.5242
2018-06-14T00:14:16.874Z,98.9443
2018-06-14T00:15:22.307Z,99.449
2018-06-14T00:16:42.104Z,98.6933
2018-06-14T00:17:47.255Z,98.6933
2018-06-14T00:18:52.942Z,98.5242
2018-06-14T00:19:57.826Z,98.2731
2018-06-14T00:21:02.411Z,99.1979
2018-06-14T00:22:07.088Z,99.449
2018-06-14T00:23:12.522Z,98.5242
2018-06-14T00:24:17.686Z,98.2731
2018-06-14T00:25:23.091Z,98.5242
2018-06-14T00:26:28.260Z,97.7685
2018-06-14T00:27:33.933Z,98.2731
2018-06-14T00:28:38.830Z,98.6933
2018-06-14T00:29:43.973Z,98.6933
2018-06-14T00:30:49.488Z,99.1979
2018-06-14T00:31:54.920Z,98.6933
2018-06-14T00:33:00.077Z,98.5242
2018-06-14T00:34:05.055Z,99.1979
2018-06-14T00:35:09.671Z,98.0221
2018-06-14T00:36:15.105Z,98.5242
2018-06-14T00:37:20.799Z,98.5242
2018-06-14T00:38:25.668Z,98.5242
2018-06-14T00:39:31.717Z,98.6933
2018-06-14T00:40:36.861Z,98.6933
2018-06-14T00:41:42.007Z,98.6933
2018-06-14T00:42:47.721Z,99.1979
2018-06-14T00:43:52.868Z,99.7026
2018-06-14T00:44:58.302Z,99.449
2018-06-14T00:46:03.835Z,99.449
2018-06-14T00:47:08.965Z,98.9443
2018-06-14T00:48:14.113Z,99.1979
2018-06-14T00:49:19.653Z,98.2731
2018-06-14T00:50:24.513Z,98.5242
2018-06-14T00:51:29.842Z,98.6933
2018-06-14T00:52:34.991Z,98.9443
2018-06-14T00:53:39.864Z,99.1979
2018-06-14T00:54:44.861Z,98.0221
2018-06-14T00:55:49.722Z,98.9443
2018-06-14T00:56:54.876Z,99.449
2018-06-14T00:58:00.661Z,98.9443
2018-06-14T00:59:06.123Z,99.449
2018-06-14T01:00:10.721Z,98.6933
2018-06-14T01:01:16.126Z,99.1979
2018-06-14T01:02:21.007Z,98.0221
2018-06-14T01:03:41.505Z,99.7026
2018-06-14T01:04:46.936Z,99.449
2018-06-14T01:05:51.810Z,99.449
2018-06-14T01:06:57.381Z,98.9443
2018-06-14T01:08:02.524Z,99.449
2018-06-14T01:09:07.684Z,99.7026
2018-06-14T01:10:13.123Z,98.2731
2018-06-14T01:11:18.608Z,98.5242
2018-06-14T01:12:23.488Z,100.1228
2018-06-14T01:13:28.942Z,99.7026
2018-06-14T01:14:34.408Z,98.6933
2018-06-14T01:15:39.909Z,98.2731
2018-06-14T01:16:45.345Z,99.1979
2018-06-14T01:17:50.777Z,98.9443
2018-06-14T01:18:55.477Z,98.9443
2018-06-14T01:20:00.908Z,98.0221
2018-06-14T01:21:05.224Z,98.5242
2018-06-14T01:22:10.726Z,98.9443
2018-06-14T01:23:15.311Z,98.5242
2018-06-14T01:24:20.180Z,98.2731
2018-06-14T01:25:25.643Z,98.5242
2018-06-14T01:26:31.097Z,98.5242
2018-06-14T01:27:35.936Z,98.2731
2018-06-14T01:28:40.829Z,99.1979
2018-06-14T01:29:46.259Z,98.5242
2018-06-14T01:30:51.945Z,98.9443
2018-06-14T01:31:57.099Z,98.9443
2018-06-14T01:33:02.526Z,99.449
2018-06-14T01:34:07.940Z,98.9443
2018-06-14T01:35:13.098Z,99.1979
2018-06-14T01:36:18.258Z,99.449
2018-06-14T01:37:23.783Z,98.9443
2018-06-14T01:38:29.243Z,99.1979
2018-06-14T01:39:34.927Z,98.9443
2018-06-14T01:40:39.826Z,98.9443
2018-06-14T01:41:44.856Z,99.1979
2018-06-14T01:42:50.278Z,97.7685
2018-06-14T01:43:55.425Z,98.9443
2018-06-14T01:45:00.628Z,98.5242
2018-06-14T01:46:05.476Z,98.2731
2018-06-14T01:47:10.078Z,99.9537
2018-06-14T01:48:15.510Z,98.6933
2018-06-14T01:49:20.916Z,99.7026
2018-06-14T01:50:26.067Z,98.6933
2018-06-14T01:51:31.731Z,98.9443
2018-06-14T01:52:36.882Z,98.9443
2018-06-14T01:53:41.754Z,98.9443
2018-06-14T01:54:47.605Z,98.6933
2018-06-14T01:55:53.040Z,99.9537
2018-06-14T01:56:58.489Z,98.9443
2018-06-14T01:58:04.271Z,100.3738
2018-06-14T01:59:09.161Z,100.6274
2018-06-14T02:00:14.315Z,99.7026
2018-06-14T02:01:19.428Z,99.449
2018-06-14T02:02:24.571Z,99.1979
2018-06-14T02:03:30.265Z,98.9443
2018-06-14T02:04:35.424Z,100.1228
2018-06-14T02:05:40.576Z,99.1979
2018-06-14T02:06:45.979Z,99.7026
2018-06-14T02:07:51.149Z,98.6933
2018-06-14T02:08:56.589Z,98.6933
2018-06-14T02:10:01.853Z,99.7026
2018-06-14T02:11:07.038Z,99.7026
2018-06-14T02:12:12.181Z,99.9537
2018-06-14T02:13:17.864Z,99.9537
2018-06-14T02:14:22.486Z,99.9537
2018-06-14T02:15:28.171Z,99.7026
2018-06-14T02:16:33.339Z,99.1979
2018-06-14T02:17:38.205Z,98.9443
2018-06-14T02:18:43.933Z,98.5242
2018-06-14T02:19:48.554Z,98.6933
2018-06-14T02:20:53.699Z,98.9443
2018-06-14T02:21:59.146Z,98.2731
2018-06-14T02:23:03.742Z,98.5242
2018-06-14T02:24:08.887Z,98.2731
2018-06-14T02:25:14.424Z,98.6933
2018-06-14T02:26:19.848Z,98.2731
2018-06-14T02:28:45.507Z,98.0221
2018-06-14T02:29:50.664Z,98.2731
2018-06-14T02:30:56.461Z,98.5242
2018-06-14T02:32:01.615Z,98.0221
2018-06-14T02:33:05.934Z,97.7685
2018-06-14T02:34:10.940Z,98.0221
2018-06-14T02:35:16.378Z,98.2731
2018-06-14T02:36:21.526Z,97.7685
2018-06-14T02:37:41.857Z,98.0221
2018-06-14T02:38:47.001Z,98.5242
2018-06-14T02:39:52.409Z,98.9443
2018-06-14T02:40:57.286Z,98.2731
2018-06-14T02:42:02.463Z,98.2731
2018-06-14T02:43:07.683Z,98.9443
2018-06-14T02:44:12.857Z,98.6933
2018-06-14T02:45:17.726Z,98.5242
2018-06-14T02:46:22.875Z,98.6933
2018-06-14T02:47:27.741Z,98.0221
2018-06-14T02:48:33.727Z,98.0221
2018-06-14T02:49:39.177Z,98.5242
2018-06-14T02:50:44.614Z,98.0221
2018-06-14T02:51:50.023Z,98.2731
2018-06-14T02:52:54.896Z,97.7685
2018-06-14T02:54:00.044Z,97.5174
2018-06-14T02:55:05.547Z,98.5242
2018-06-14T02:56:10.422Z,97.7685
2018-06-14T02:57:15.551Z,98.6933
2018-06-14T02:58:21.261Z,98.2731
2018-06-14T02:59:26.714Z,97.7685
2018-06-14T03:00:32.523Z,98.2731
2018-06-14T03:01:37.687Z,97.5174
2018-06-14T03:02:43.120Z,97.3483
2018-06-14T03:03:48.810Z,98.6933
2018-06-14T03:04:54.267Z,97.0973
2018-06-14T03:05:59.131Z,97.5174
2018-06-14T03:07:04.949Z,97.7685
2018-06-14T03:08:10.385Z,97.5174
2018-06-14T03:09:15.247Z,97.7685
2018-06-14T03:10:20.641Z,97.7685
2018-06-14T03:11:26.090Z,98.2731
2018-06-14T03:12:30.953Z,97.3483
2018-06-14T03:13:36.107Z,97.5174
2018-06-14T03:14:41.578Z,98.5242
2018-06-14T03:15:47.263Z,98.0221
2018-06-14T03:16:52.139Z,98.5242
2018-06-14T03:17:57.603Z,99.1979
2018-06-14T03:19:03.112Z,98.6933
2018-06-14T03:20:07.984Z,98.2731
2018-06-14T03:21:13.131Z,97.7685
2018-06-14T03:22:18.914Z,98.9443
2018-06-14T03:23:23.790Z,98.5242
2018-06-14T03:24:29.111Z,99.1979
2018-06-14T03:25:33.979Z,98.9443
2018-06-14T03:26:39.137Z,99.1979
2018-06-14T03:27:44.545Z,98.6933
2018-06-14T03:28:49.988Z,99.1979
2018-06-14T03:29:55.135Z,98.9443
2018-06-14T03:31:00.925Z,99.1979
2018-06-14T03:32:05.817Z,99.1979
2018-06-14T03:33:10.126Z,98.9443
2018-06-14T03:34:15.400Z,98.9443
2018-06-14T03:35:20.839Z,98.6933
2018-06-14T03:36:41.191Z,99.7026
2018-06-14T03:37:46.340Z,99.1979
2018-06-14T03:38:51.492Z,98.9443
2018-06-14T03:39:56.892Z,98.6933
2018-06-14T03:41:02.330Z,98.9443
2018-06-14T03:42:06.918Z,98.5242
2018-06-14T03:43:12.037Z,99.1979
2018-06-14T03:44:17.211Z,99.1979
2018-06-14T03:45:22.654Z,99.1979
2018-06-14T03:46:28.633Z,99.449
2018-06-14T03:47:34.256Z,99.1979
2018-06-14T03:48:39.403Z,99.449
2018-06-14T03:49:43.981Z,98.6933
2018-06-14T03:50:49.149Z,99.1979
2018-06-14T03:51:54.424Z,99.1979
2018-06-14T03:52:59.547Z,98.6933
2018-06-14T03:54:04.708Z,98.6933
2018-06-14T03:55:09.704Z,99.449
2018-06-14T03:56:15.141Z,99.449
2018-06-14T03:57:20.284Z,99.449
2018-06-14T03:58:26.319Z,98.9443
2018-06-14T03:59:31.873Z,98.9443
2018-06-14T04:00:37.283Z,98.6933
2018-06-14T04:01:42.758Z,99.449
2018-06-14T04:02:47.624Z,99.1979
2018-06-14T04:03:53.353Z,99.1979
2018-06-14T04:04:58.787Z,99.9537
2018-06-14T04:06:03.378Z,99.1979
2018-06-14T04:07:08.210Z,99.449
2018-06-14T04:08:13.371Z,99.9537
2018-06-14T04:09:18.802Z,100.3738
2018-06-14T04:10:24.291Z,98.9443
2018-06-14T04:11:29.551Z,100.3738
2018-06-14T04:12:34.163Z,100.3738
2018-06-14T04:13:39.316Z,100.1228
2018-06-14T04:14:44.192Z,100.1228
2018-06-14T04:15:49.874Z,100.8785
2018-06-14T04:16:54.746Z,100.1228
2018-06-14T04:18:00.192Z,99.449
2018-06-14T04:19:05.687Z,100.1228
2018-06-14T04:20:10.545Z,100.3738
2018-06-14T04:21:15.991Z,100.1228
2018-06-14T04:22:21.401Z,99.449
2018-06-14T04:23:26.841Z,99.1979
2018-06-14T04:24:32.827Z,100.1228
2018-06-14T04:25:37.997Z,100.6274
2018-06-14T04:26:43.160Z,100.3738
2018-06-14T04:27:48.846Z,99.9537
2018-06-14T04:28:53.729Z,99.9537
2018-06-14T04:29:58.617Z,100.1228
2018-06-14T04:31:03.593Z,99.9537
2018-06-14T04:32:08.746Z,100.3738
2018-06-14T04:33:13.924Z,100.6274
2018-06-14T04:34:19.614Z,100.6274
2018-06-14T04:35:25.048Z,99.9537
2018-06-14T04:36:30.842Z,99.9537
2018-06-14T04:37:36.290Z,99.9537
2018-06-14T04:38:41.154Z,100.3738
2018-06-14T04:39:45.842Z,100.1228
2018-06-14T04:40:51.277Z,99.449
2018-06-14T04:41:56.708Z,99.9537
2018-06-14T04:43:01.825Z,100.1228
2018-06-14T04:44:06.417Z,99.449
2018-06-14T04:45:11.564Z,99.449
2018-06-14T04:46:16.706Z,99.7026
2018-06-14T04:47:21.883Z,99.7026
2018-06-14T04:48:27.660Z,99.9537
2018-06-14T04:49:32.819Z,99.9537
2018-06-14T04:50:37.710Z,99.9537
2018-06-14T04:51:42.543Z,99.7026
2018-06-14T04:52:47.437Z,99.7026
2018-06-14T04:53:52.863Z,99.9537
2018-06-14T04:54:58.649Z,99.7026
2018-06-14T04:56:03.521Z,99.9537
2018-06-14T04:57:08.702Z,100.3738
2018-06-14T04:58:14.534Z,100.3738
2018-06-14T04:59:19.433Z,100.8785
2018-06-14T05:00:24.304Z,100.8785
2018-06-14T05:01:29.188Z,100.8785
2018-06-14T05:02:34.346Z,101.1295
2018-06-14T05:03:39.626Z,101.1295
2018-06-14T05:04:45.059Z,100.8785
2018-06-14T05:05:50.496Z,100.3738
2018-06-14T05:06:56.017Z,101.3831
2018-06-14T05:08:01.171Z,100.8785
2018-06-14T05:09:06.056Z,101.1295
2018-06-14T05:10:11.285Z,101.6342
2018-06-14T05:11:16.720Z,100.6274
2018-06-14T05:12:21.872Z,100.8785
2018-06-14T05:13:27.907Z,100.3738
2018-06-14T05:14:33.342Z,100.6274
2018-06-14T05:15:38.889Z,100.3738
2018-06-14T05:16:43.790Z,100.1228
2018-06-14T05:17:48.945Z,100.1228
2018-06-14T05:18:54.730Z,100.3738
2018-06-14T05:19:59.883Z,100.1228
2018-06-14T05:21:05.327Z,100.6274
2018-06-14T05:22:11.009Z,100.1228
2018-06-14T05:23:15.883Z,100.3738
2018-06-14T05:24:21.044Z,100.3738
2018-06-14T05:25:26.158Z,100.6274
2018-06-14T05:26:31.317Z,100.6274
2018-06-14T05:27:37.205Z,100.6274
2018-06-14T05:28:42.664Z,102.3925
2018-06-14T05:29:47.977Z,101.6342
2018-06-14T05:30:53.092Z,101.3831
2018-06-14T05:31:58.242Z,102.1388
2018-06-14T05:33:03.396Z,102.1388
2018-06-14T05:34:08.515Z,102.1388
2018-06-14T05:35:13.658Z,103.0637
2018-06-14T05:36:18.843Z,102.8126
2018-06-14T05:37:24.673Z,101.6342
2018-06-14T05:38:29.559Z,102.1388
2018-06-14T05:39:35.230Z,102.1388
2018-06-14T05:40:39.818Z,101.8878
2018-06-14T05:41:45.253Z,101.8878
2018-06-14T05:42:50.901Z,101.8878
2018-06-14T05:43:56.044Z,102.3925
2018-06-14T05:45:01.475Z,101.8878
2018-06-14T05:46:06.978Z,101.8878
2018-06-14T05:47:11.866Z,102.3925
2018-06-14T05:48:17.311Z,101.1295
2018-06-14T05:49:23.195Z,101.8878
2018-06-14T05:50:28.369Z,101.6342
2018-06-14T05:51:33.937Z,102.3925
2018-06-14T05:52:39.386Z,101.8878
2018-06-14T05:53:44.826Z,101.6342
2018-06-14T05:54:50.606Z,101.3831
2018-06-14T05:55:55.484Z,102.1388
2018-06-14T05:57:00.629Z,102.3925
2018-06-14T05:58:06.124Z,101.8878
2018-06-14T05:59:11.277Z,101.8878
2018-06-14T06:00:16.438Z,102.1388
2018-06-14T06:01:21.269Z,102.3925
2018-06-14T06:02:26.701Z,102.6435
2018-06-14T06:03:31.794Z,102.6435
2018-06-14T06:04:36.663Z,101.8878
2018-06-14T06:05:42.098Z,102.1388
2018-06-14T06:06:47.306Z,102.1388
2018-06-14T06:07:52.460Z,102.8126
2018-06-14T06:08:57.605Z,102.3925
2018-06-14T06:10:02.548Z,103.3173
2018-06-14T06:11:07.456Z,102.3925
2018-06-14T06:12:12.887Z,103.822
2018-06-14T06:13:18.302Z,102.559
2018-06-14T06:14:22.923Z,102.6435
2018-06-14T06:15:28.300Z,102.1388
2018-06-14T06:16:33.463Z,102.8126
2018-06-14T06:17:38.893Z,102.8126
2018-06-14T06:18:44.397Z,102.8126
2018-06-14T06:19:49.975Z,102.6435
2018-06-14T06:20:55.258Z,102.8126
2018-06-14T06:22:00.459Z,103.0637
2018-06-14T06:23:05.590Z,103.5683
2018-06-14T06:24:11.024Z,103.5683
2018-06-14T06:25:16.867Z,103.5683
2018-06-14T06:26:22.862Z,104.5777
2018-06-14T06:27:27.974Z,104.073
2018-06-14T06:28:33.419Z,103.822
2018-06-14T06:29:38.590Z,103.5683
2018-06-14T06:30:44.593Z,104.073
2018-06-14T06:31:49.467Z,103.822
2018-06-14T06:32:54.830Z,103.5683
2018-06-14T06:34:00.361Z,103.822
2018-06-14T06:35:05.239Z,103.3173
2018-06-14T06:36:10.395Z,103.3173
2018-06-14T06:37:16.123Z,103.5683
2018-06-14T06:38:21.280Z,104.324
2018-06-14T06:39:26.721Z,104.324
2018-06-14T06:40:31.335Z,104.5777
2018-06-14T06:41:36.501Z,103.3173
2018-06-14T06:42:41.938Z,103.3173
2018-06-14T06:43:46.827Z,103.5683
2018-06-14T06:44:51.975Z,103.0637
2018-06-14T06:45:57.732Z,103.822
2018-06-14T06:47:02.608Z,103.5683
2018-06-14T06:48:08.093Z,103.822
2018-06-14T06:49:13.776Z,103.3173
2018-06-14T06:50:18.954Z,104.5777
2018-06-14T06:51:24.110Z,104.5777
2018-06-14T06:52:29.906Z,105.2489
2018-06-14T06:53:34.486Z,105.418
2018-06-14T06:54:39.596Z,104.9978
2018-06-14T06:55:44.464Z,104.5777
2018-06-14T06:56:50.060Z,104.5777
2018-06-14T06:57:55.021Z,104.5777
2018-06-14T06:59:00.730Z,103.5683
2018-06-14T07:00:05.567Z,104.324
2018-06-14T07:01:10.979Z,104.9978
2018-06-14T07:02:16.134Z,103.5683
2018-06-14T07:03:21.320Z,104.324
2018-06-14T07:04:26.576Z,104.324
2018-06-14T07:05:32.018Z,104.324
2018-06-14T07:06:37.707Z,105.2489
2018-06-14T07:07:42.582Z,104.324
2018-06-14T07:08:47.486Z,104.324
2018-06-14T07:09:53.388Z,104.324
2018-06-14T07:10:58.867Z,104.9978
2018-06-14T07:12:04.121Z,104.9978
2018-06-14T07:13:08.710Z,105.418
2018-06-14T07:14:13.591Z,104.324
2018-06-14T07:15:18.764Z,105.418
2018-06-14T07:16:23.983Z,104.9978
2018-06-14T07:17:29.174Z,105.9226
2018-06-14T07:18:35.004Z,106.4273
2018-06-14T07:19:40.194Z,105.5025
2018-06-14T07:20:45.344Z,106.4273
2018-06-14T07:21:51.440Z,106.1763
2018-06-14T07:22:56.875Z,105.2489
2018-06-14T07:24:01.485Z,105.9226
2018-06-14T07:25:05.887Z,105.9226
2018-06-14T07:26:11.025Z,105.9226
2018-06-14T07:27:16.659Z,106.1763
2018-06-14T07:28:22.092Z,105.5025
2018-06-14T07:29:26.407Z,106.4273
2018-06-14T07:30:31.958Z,106.4273
2018-06-14T07:31:37.050Z,106.4273
2018-06-14T07:32:42.240Z,106.4273
2018-06-14T07:33:47.648Z,106.4273
2018-06-14T07:34:52.505Z,106.681
2018-06-14T07:35:57.938Z,105.9226
2018-06-14T07:37:02.771Z,104.9978
2018-06-14T07:38:07.368Z,106.1763
2018-06-14T07:39:12.527Z,106.1763
2018-06-14T07:40:18.125Z,105.9226
2018-06-14T07:41:23.179Z,106.932
2018-06-14T07:42:28.941Z,105.6716
2018-06-14T07:43:34.127Z,106.4273
2018-06-14T07:44:39.278Z,107.1857
2018-06-14T07:45:44.106Z,106.932
2018-06-14T07:46:48.974Z,107.1857
2018-06-14T07:47:54.574Z,106.932
2018-06-14T07:49:00.356Z,106.932
2018-06-14T07:50:05.515Z,106.932
2018-06-14T07:51:10.667Z,106.681
2018-06-14T07:52:15.798Z,106.932
2018-06-14T07:53:20.956Z,106.932
2018-06-14T07:54:26.380Z,106.1763
2018-06-14T07:55:31.249Z,106.932
2018-06-14T07:56:36.680Z,107.1857
2018-06-14T07:57:41.902Z,106.4273
2018-06-14T07:58:47.335Z,106.681
2018-06-14T07:59:52.794Z,107.1857
2018-06-14T08:00:58.111Z,106.932
2018-06-14T08:02:02.989Z,107.1857
2018-06-14T08:03:08.135Z,108.195
2018-06-14T08:04:13.646Z,107.1857
2018-06-14T08:05:18.787Z,106.932
2018-06-14T08:06:24.469Z,106.932
2018-06-14T08:07:30.309Z,106.932
2018-06-14T08:08:35.453Z,107.1857
2018-06-14T08:09:40.674Z,106.681
2018-06-14T08:10:46.316Z,107.9414
2018-06-14T08:11:51.471Z,106.932
2018-06-14T08:12:56.361Z,106.4273
2018-06-14T08:14:01.803Z,107.1857
2018-06-14T08:15:06.666Z,107.9414
2018-06-14T08:16:11.317Z,108.6152
2018-06-14T08:17:16.476Z,108.195
2018-06-14T08:18:21.353Z,106.932
2018-06-14T08:19:27.301Z,107.1857
2018-06-14T08:20:32.745Z,107.6877
2018-06-14T08:21:38.595Z,107.4367
2018-06-14T08:22:44.045Z,107.4367
2018-06-14T08:23:49.195Z,107.6877
2018-06-14T08:24:54.881Z,108.3615
2018-06-14T08:26:00.039Z,108.195
2018-06-14T08:27:05.188Z,107.9414
2018-06-14T08:28:10.515Z,107.9414
2018-06-14T08:29:15.953Z,108.195
2018-06-14T08:30:20.822Z,108.6152
2018-06-14T08:31:26.534Z,107.9414
2018-06-14T08:32:31.976Z,107.6877
2018-06-14T08:33:37.806Z,108.3615
2018-06-14T08:34:42.974Z,108.3615
2018-06-14T08:35:47.844Z,107.6877
2018-06-14T08:36:52.685Z,107.9414
2018-06-14T08:37:57.943Z,108.195
2018-06-14T08:39:02.271Z,108.195
2018-06-14T08:40:06.899Z,107.9414
2018-06-14T08:41:12.047Z,107.9414
2018-06-14T08:42:16.947Z,107.9414
2018-06-14T08:43:22.722Z,107.9414
2018-06-14T08:44:28.158Z,108.8662
2018-06-14T08:45:34.145Z,108.6152
2018-06-14T08:46:39.422Z,109.1199
2018-06-14T08:47:44.297Z,108.195
2018-06-14T08:48:49.515Z,108.3615
2018-06-14T08:49:54.668Z,108.3615
2018-06-14T08:50:59.548Z,109.1199
2018-06-14T08:52:05.054Z,108.6152
2018-06-14T08:53:10.480Z,108.8662
2018-06-14T08:54:15.107Z,109.3709
2018-06-14T08:55:20.660Z,110.1292
2018-06-14T08:56:25.806Z,110.6339
2018-06-14T08:57:31.527Z,109.3709
2018-06-14T08:58:36.690Z,108.6152
2018-06-14T08:59:41.555Z,109.8756
2018-06-14T09:00:46.696Z,109.1199
2018-06-14T09:01:51.573Z,109.3709
2018-06-14T09:02:56.721Z,109.3709
2018-06-14T09:04:02.251Z,109.1199
2018-06-14T09:05:07.117Z,109.1199
2018-06-14T09:06:12.597Z,109.6245
2018-06-14T09:07:18.479Z,109.3709
2018-06-14T09:08:23.646Z,110.3802
2018-06-14T09:09:29.175Z,110.1292
2018-06-14T09:10:34.315Z,110.3802
2018-06-14T09:11:39.914Z,110.803
2018-06-14T09:12:45.842Z,110.6339
2018-06-14T09:13:51.084Z,110.1292
2018-06-14T09:14:56.236Z,110.803
2018-06-14T09:16:01.802Z,110.803
2018-06-14T09:17:06.712Z,111.054
2018-06-14T09:18:11.797Z,110.3802
2018-06-14T09:19:17.309Z,111.3051
2018-06-14T09:20:22.470Z,110.803
2018-06-14T09:21:28.733Z,111.5587
2018-06-14T09:22:33.896Z,111.3051
2018-06-14T09:23:39.052Z,110.1292
2018-06-14T09:24:44.168Z,111.5587
2018-06-14T09:25:48.742Z,111.8124
2018-06-14T09:26:54.175Z,110.6339
2018-06-14T09:27:59.679Z,111.054
2018-06-14T09:29:04.828Z,110.6339
2018-06-14T09:30:09.987Z,110.6339
2018-06-14T09:31:15.698Z,111.3051
2018-06-14T09:32:21.480Z,111.8124
2018-06-14T09:33:27.493Z,112.0634
2018-06-14T09:34:31.794Z,111.8124
2018-06-14T09:35:37.228Z,111.054
2018-06-14T09:36:42.636Z,111.8124
2018-06-14T09:37:48.087Z,111.054
2018-06-14T09:38:52.957Z,111.3051
2018-06-14T09:39:58.201Z,111.5587
2018-06-14T09:41:03.846Z,110.6339
2018-06-14T09:42:08.156Z,110.803
2018-06-14T09:43:13.548Z,111.8124
2018-06-14T09:44:18.986Z,111.054
2018-06-14T09:45:24.142Z,111.5587
2018-06-14T09:46:29.650Z,111.3051
2018-06-14T09:47:34.806Z,111.5587
2018-06-14T09:48:40.246Z,111.5587
2018-06-14T09:49:45.699Z,111.054
2018-06-14T09:50:50.566Z,112.0634
2018-06-14T09:51:56.258Z,111.8124
2018-06-14T09:53:01.423Z,111.8124
2018-06-14T09:54:06.904Z,111.8124
2018-06-14T09:55:12.334Z,112.0634
2018-06-14T09:56:17.767Z,112.0634
2018-06-14T09:57:23.203Z,112.0634
2018-06-14T09:58:28.837Z,111.5587
2018-06-14T09:59:34.011Z,112.8217
2018-06-14T10:00:39.414Z,112.0634
2018-06-14T10:01:44.305Z,111.5587
2018-06-14T10:02:49.459Z,112.0634
2018-06-14T10:03:54.863Z,112.3171
2018-06-14T10:05:00.302Z,111.8124
2018-06-14T10:06:05.820Z,112.3171
2018-06-14T10:07:11.468Z,112.5681
2018-06-14T10:08:16.923Z,112.9882
2018-06-14T10:09:22.090Z,113.2419
2018-06-14T10:10:27.504Z,112.3171
2018-06-14T10:11:32.687Z,112.8217
2018-06-14T10:12:38.197Z,112.9882
2018-06-14T10:13:43.837Z,112.3171
2018-06-14T10:14:48.993Z,113.2419
2018-06-14T10:15:54.420Z,112.3171
2018-06-14T10:16:59.566Z,112.0634
2018-06-14T10:18:04.167Z,112.9882
2018-06-14T10:19:09.300Z,113.4929
2018-06-14T10:20:14.509Z,112.9882
2018-06-14T10:21:19.385Z,113.2419
2018-06-14T10:22:24.719Z,112.9882
2018-06-14T10:23:29.578Z,113.4929
2018-06-14T10:24:35.278Z,114.1667
2018-06-14T10:25:39.875Z,113.9157
2018-06-14T10:26:45.030Z,113.4929
2018-06-14T10:27:50.375Z,113.662
2018-06-14T10:28:55.538Z,114.1667
2018-06-14T10:30:00.628Z,114.1667
2018-06-14T10:31:05.475Z,114.6714
2018-06-14T10:32:10.345Z,113.9157
2018-06-14T10:33:15.218Z,113.9157
2018-06-14T10:34:20.445Z,113.662
2018-06-14T10:35:25.307Z,113.9157
2018-06-14T10:36:30.895Z,113.662
2018-06-14T10:37:36.345Z,114.4203
2018-06-14T10:38:41.807Z,114.1667
2018-06-14T10:39:46.800Z,114.1667
2018-06-14T10:40:52.229Z,113.662
2018-06-14T10:41:57.660Z,114.1667
2018-06-14T10:43:02.877Z,114.6714
2018-06-14T10:44:07.487Z,114.4203
2018-06-14T10:45:12.353Z,114.925
2018-06-14T10:46:17.850Z,114.925
2018-06-14T10:47:23.032Z,114.6714
2018-06-14T10:48:28.451Z,114.1667
2018-06-14T10:49:32.758Z,114.6714
2018-06-14T10:50:37.622Z,114.1667
2018-06-14T10:51:43.303Z,114.6714
2018-06-14T10:52:47.341Z,114.925
2018-06-14T10:53:52.196Z,114.925
2018-06-14T10:54:57.340Z,114.6714
2018-06-14T10:56:01.940Z,115.3452
2018-06-14T10:57:06.555Z,114.925
2018-06-14T10:58:11.959Z,115.3452
2018-06-14T10:59:17.116Z,114.925
2018-06-14T11:00:22.584Z,115.1787
2018-06-14T11:01:28.525Z,115.5988
2018-06-14T11:02:33.681Z,114.6714
2018-06-14T11:03:39.366Z,114.6714
2018-06-14T11:04:44.797Z,115.5988
2018-06-14T11:05:50.289Z,115.1787
2018-06-14T11:06:55.964Z,115.8498
2018-06-14T11:08:01.397Z,116.1035
2018-06-14T11:09:06.124Z,116.3572
2018-06-14T11:10:11.619Z,116.1035
2018-06-14T11:11:16.784Z,116.1035
2018-06-14T11:12:22.254Z,116.3572
2018-06-14T11:13:28.361Z,117.1129
2018-06-14T11:14:33.239Z,117.1129
2018-06-14T11:15:38.914Z,117.1129
2018-06-14T11:16:44.417Z,115.8498
2018-06-14T11:17:49.546Z,117.1129
2018-06-14T11:18:55.382Z,116.6082
2018-06-14T11:20:00.545Z,117.5356
2018-06-14T11:21:04.907Z,116.3572
2018-06-14T11:22:10.533Z,117.1129
2018-06-14T11:23:15.968Z,116.8618
2018-06-14T11:24:21.467Z,117.1129
2018-06-14T11:25:41.502Z,117.1129
2018-06-14T11:26:46.665Z,117.1129
2018-06-14T11:27:52.402Z,117.7867
2018-06-14T11:28:57.555Z,117.7867
2018-06-14T11:30:03.301Z,118.0403
2018-06-14T11:31:09.125Z,117.5356
2018-06-14T11:32:14.293Z,117.3665
2018-06-14T11:33:19.725Z,117.5356
2018-06-14T11:34:25.508Z,117.5356
2018-06-14T11:35:30.169Z,118.545
2018-06-14T11:36:35.562Z,117.3665
2018-06-14T11:37:40.643Z,116.8618
2018-06-14T11:38:45.517Z,118.2913
2018-06-14T11:39:50.926Z,118.545
2018-06-14T11:40:56.083Z,119.3034
2018-06-14T11:42:00.950Z,119.0497
2018-06-14T11:43:06.560Z,119.9771
2018-06-14T11:44:11.627Z,119.5544
2018-06-14T11:45:16.775Z,119.3034
2018-06-14T11:46:21.606Z,118.7987
2018-06-14T11:47:26.210Z,118.2913
2018-06-14T11:48:32.567Z,119.0497
2018-06-14T11:49:37.451Z,118.0403
2018-06-14T11:50:42.616Z,119.0497
2018-06-14T11:51:47.746Z,118.545
2018-06-14T11:52:53.201Z,118.545
2018-06-14T11:53:58.357Z,119.7235
2018-06-14T11:55:04.148Z,119.7235
2018-06-14T11:56:09.221Z,119.3034
2018-06-14T11:57:13.791Z,119.9771
2018-06-14T11:58:19.245Z,120.7328
2018-06-14T11:59:23.280Z,120.2282
2018-06-14T12:00:28.994Z,119.9771
2018-06-14T12:01:34.178Z,119.5544
2018-06-14T12:02:39.405Z,119.9771
2018-06-14T12:03:44.532Z,119.5544
2018-06-14T12:04:49.701Z,119.9771
2018-06-14T12:05:54.851Z,120.7328
2018-06-14T12:06:59.958Z,120.9865
2018-06-14T12:08:05.128Z,119.5544
2018-06-14T12:09:10.294Z,119.5544
2018-06-14T12:10:15.978Z,120.4818
2018-06-14T12:11:20.811Z,120.2282
2018-06-14T12:12:26.700Z,119.808
2018-06-14T12:13:32.094Z,120.7328
2018-06-14T12:14:37.540Z,121.2402
2018-06-14T12:15:43.048Z,121.7449
2018-06-14T12:16:48.232Z,121.7449
2018-06-14T12:17:53.096Z,121.4912
2018-06-14T12:18:58.625Z,120.9865
2018-06-14T12:20:04.473Z,121.4912
2018-06-14T12:21:09.349Z,120.7328
2018-06-14T12:22:15.364Z,120.4818
2018-06-14T12:23:20.799Z,121.4912
2018-06-14T12:24:40.680Z,122.2495
2018-06-14T12:25:45.553Z,121.4912
2018-06-14T12:26:50.716Z,121.2402
2018-06-14T12:27:56.421Z,120.9865
2018-06-14T12:29:01.587Z,121.2402
2018-06-14T12:30:06.464Z,121.9985
2018-06-14T12:31:11.855Z,121.7449
2018-06-14T12:32:17.027Z,122.4186
2018-06-14T12:33:22.456Z,122.4186
2018-06-14T12:34:28.174Z,122.2495
2018-06-14T12:35:33.319Z,122.6723
2018-06-14T12:36:38.786Z,122.6723
2018-06-14T12:37:44.314Z,121.9985
2018-06-14T12:38:49.577Z,123.177
2018-06-14T12:39:55.069Z,123.177
2018-06-14T12:41:00.145Z,123.177
2018-06-14T12:42:05.779Z,123.428
2018-06-14T12:43:11.610Z,123.6817
2018-06-14T12:44:17.530Z,123.9353
2018-06-14T12:45:22.833Z,124.6091
2018-06-14T12:46:28.524Z,124.3555
2018-06-14T12:47:33.970Z,124.1864
2018-06-14T12:48:39.661Z,123.6817
2018-06-14T12:49:44.834Z,123.9353
2018-06-14T12:50:50.268Z,124.1864
2018-06-14T12:51:55.405Z,124.1864
2018-06-14T12:53:00.574Z,123.9353
2018-06-14T12:54:05.752Z,123.6817
2018-06-14T12:55:11.175Z,124.3555
2018-06-14T12:56:16.042Z,123.9353
2018-06-14T12:57:21.473Z,125.1138
2018-06-14T12:58:26.671Z,125.1138
2018-06-14T12:59:32.115Z,124.6091